< < Back
Terminal Aerodrome Forecast


Current Version              Previous Versions:   1  2  3  4  5  6  7  8  9  

Terminal Aerodrome Forecast

717
FTUS42 KMLB 231100 RRA
TAFMCO
TAF
KMCO 231145Z 2312/2412 15009KT P6SM FEW008 BKN025 OVC200
      WS010/15036KT
     FM231500 16014G20KT P6SM SCT025 BKN035
      TEMPO 2315/2317 BKN025
     FM231900 16015G23KT P6SM VCSH BKN035 BKN060
     FM240200 18007KT P6SM SCT035 BKN200
     FM240600 19006KT 5SM BR OVC004=

Latest METAR

335
SAUS70 KWBC 231700 RRM
MTRMCO
METAR KMCO 231653Z 17013G23KT 10SM SCT022 SCT190 BKN250 28/22 A2998 RMK
AO2 SLP151 T02780217 $


USA.gov is the U.S. government's official web portal to all federal, state and local government web resources and services.